South Mason Valley, Nevada Weather observations

Data are for 10 minute period ending at time listed.
 Day   Time   Solar   Ave.   Ave.  Ave.  Vector  Max.   Baro.   Total    
  of    of     Rad.   Air    Rel.  Wind   Wind   Wind  Press.  Precip.   
Year   Day            Temp.  Hum.  Speed  Dir.   Gust                    
2016   (PST)  Kw/m2    F      %     mph   deg.    mph    mb.     in.     
-------------------------------------------------------------------------
 210    3:50   0.00   62.3    54    1.6   334     2.3   880.0    0.00 
 210    4:00   0.00   63.3    47    2.4   310     3.9   880.0    0.00 
 210    4:10   0.00   65.8    44    3.7   295     4.2   880.0    0.00 
 210    4:20   0.00   64.7    45    2.2   223     3.3   880.0    0.00 
 210    4:30   0.00   60.7    55    3.6   149     4.3   880.1    0.00 
 210    4:40   0.00   58.0    62    1.9   153     3.6   880.2    0.00 
 210    4:50   0.00   58.0    63    1.9   104     3.5   880.3    0.00 
 210    5:00   0.01   57.3    64    0.5   115     2.3   880.3    0.00 
 210    5:10   0.01   57.0    65    1.0   111     2.4   880.4    0.00 
 210    5:20   0.03   58.0    64    0.0   289     0.6   880.5    0.00 
 210    5:30   0.04   59.6    62    1.1    96     2.7   880.5    0.00 
 210    5:40   0.06   61.2    60    1.9    72     3.7   880.5    0.00 
 210    5:50   0.08   63.0    64    0.3   333     1.4   880.5    0.00 
 210    6:00   0.10   65.2    67    0.6   342     1.6   880.6    0.00 
 210    6:10   0.13   67.6    63    1.2   330     2.3   880.6    0.00 
 210    6:20   0.15   68.5    60    1.2   355     2.1   880.7    0.00 
 210    6:30   0.17   71.6    54    0.0     0     0.0   880.8    0.00 
 210    6:40   0.20   74.2    48    0.0     0     0.0   880.9    0.00 
 210    6:50   0.22   76.3    48    0.3    15     1.3   881.1    0.00 
 210    7:00   0.25   77.4    45    0.0     0     0.0   881.2    0.00 
 210    7:10   0.27   78.6    41    0.1   254     1.4   881.3    0.00 
 210    7:20   0.30   79.9    36    0.2   261     1.3   881.5    0.00 
 210    7:30   0.32   82.3    32    0.4   290     1.4   881.6    0.00 
 210    7:40   0.35   83.1    26    0.6   303     1.2   881.7    0.00 
 210    7:50   0.37   84.0    31    1.7   294     3.2   881.8    0.00 
 210    8:00   0.40   84.0    33    2.3   291     4.5   881.8    0.00 
 210    8:10   0.42   85.2    33    2.8   294     5.0   881.8    0.00 
 210    8:20   0.44   86.2    30    2.8   307     4.5   881.8    0.00 
 210    8:30   0.47   87.5    27    2.7   295     4.7   881.7    0.00 
 210    8:40   0.49   87.8    25    3.8   318     5.6   881.7    0.00 
 210    8:50   0.51   88.3    26    3.7   334     6.0   881.6    0.00 
 210    9:00   0.53   88.7    24    3.2   325     5.1   881.6    0.00 
 210    9:10   0.55   89.3    23    3.6   339     5.8   881.6    0.00 
 210    9:20   0.57   89.3    22    4.7   334     6.8   881.5    0.00 
 210    9:30   0.59   89.7    22    4.0   326     6.9   881.5    0.00 
 210    9:40   0.60   91.0    21    2.9   327     5.0   881.5    0.00 
 210    9:50   0.62   91.7    20    3.3   358     5.6   881.4    0.00 
 210   10:00   0.63   92.7    17    2.2   326     5.0   881.3    0.00 
 210   10:10   0.65   94.0    16    1.9   307     4.4   881.2    0.00 
 210   10:20   0.66   94.9    15    1.8   326     5.1   881.1    0.00 
 210   10:30   0.67   95.3    14    2.0   306     3.8   881.0    0.00 
 210   10:40   0.68   95.9    15    2.3   306     5.0   880.9    0.00 
 210   10:50   0.69   95.3    15    3.5   314     6.1   880.7    0.00 
 210   11:00   0.70   95.8    13    1.7   298     4.0   880.6    0.00 
 210   11:10   0.71   98.5    14    0.6     3     2.7   880.4    0.00 
 210   11:20   0.72   98.1    13    2.4   321     6.6   880.3    0.00 
 210   11:30   0.72   98.0    13    1.4   328     3.3   880.1    0.00 
 210   11:40   0.72   98.9    12    2.5   331     5.0   880.0    0.00 
 210   11:50   0.73   97.7    15    3.7   356     6.4   879.9    0.00 
 210   12:00   0.73   98.2    13    2.5    23     6.0   879.7    0.00 
 210   12:10   0.73   98.0    15    3.7     0     7.3   879.7    0.00 
 210   12:20   0.73   99.5    13    1.3   320     4.3   879.5    0.00 
 210   12:30   0.72  100.9    12    2.1   350     5.0   879.4    0.00 
 210   12:40   0.72  100.3    14    2.5     4     6.4   879.3    0.00 
 210   12:50   0.71  100.7    11    1.9   309     4.2   879.1    0.00 
 210   13:00   0.71  100.5    13    2.9   335     6.4   879.0    0.00 
 210   13:10   0.70   99.5    15    4.1    15     7.7   878.9    0.00 
 210   13:20   0.69   99.6    13    2.3    12     5.6   878.9    0.00 
 210   13:30   0.68  100.7    12    2.2   328     5.8   878.7    0.00 
 210   13:40   0.67  102.8    11    0.8   220     2.8   878.6    0.00 
 210   13:50   0.66  104.3    12    1.5    33     5.0   878.6    0.00 
 210   14:00   0.65  103.5    13    1.4   335     3.8   878.6    0.00 
 210   14:10   0.63  103.5    12    2.3   218     5.3   878.5    0.00 
 210   14:20   0.61  100.5    12    3.2   196     5.7   878.4    0.00 
 210   14:30   0.60  100.8    12    2.0   209     3.9   878.3    0.00 
 210   14:40   0.58  103.3    12    0.7   248     2.3   878.1    0.00 
 210   14:50   0.56  104.6    12    1.5   230     3.7   878.0    0.00 
 210   15:00   0.55  102.8    14    2.6   203     4.7   877.9    0.00 
 210   15:10   0.53  103.2    13    0.6   250     2.3   877.8    0.00 
 210   15:20   0.50  105.6    12    0.7   310     2.3   877.8    0.00 
 210   15:30   0.48  105.0    14    1.7   254     3.8   877.8    0.00 
 210   15:40   0.46  102.4    14    2.9   172     6.6   877.6    0.00 
 210   15:50   0.44  100.7    13    3.0   146     5.3   877.5    0.00 
 210   16:00   0.41  102.1    13    0.7   102     2.6   877.4    0.00 
 210   16:10   0.39  104.8    15    0.8   224     1.8   877.4    0.00 
 210   16:20   0.37  105.4    14    1.3   166     2.6   877.4    0.00 
 210   16:30   0.34  104.1    14    2.1   191     2.9   877.4    0.00 
 210   16:40   0.32  102.8    16    2.1   178     2.9   877.3    0.00 
 210   16:50   0.30  101.4    18    3.3   157     4.7   877.1    0.00 
 210   17:00   0.27   99.8    20    2.1   174     3.3   877.0    0.00 
 210   17:10   0.25  101.2    20    1.1   212     2.3   876.8    0.00 
 210   17:20   0.22  101.6    18    2.1   182     2.6   876.7    0.00 
 210   17:30   0.20  101.5    24    1.6   162     2.3   876.7    0.00 
 210   17:40   0.17  100.7    20    1.7   153     2.4   876.7    0.00 
 210   17:50   0.14  100.4    21    1.6   156     2.0   876.7    0.00 
 210   18:00   0.07   99.3    25    1.5   169     2.1   876.6    0.00 
 210   18:10   0.02   95.1    24    2.2   168     2.7   876.7    0.00 
 210   18:20   0.02   91.1    24    1.7   236     2.2   876.9    0.00 
 210   18:30   0.01   88.2    28    1.3   292     2.5   877.1    0.00 
 210   18:40   0.01   87.5    26    1.8   265     3.6   877.2    0.00 
 210   18:50   0.01   85.0    32    1.3   270     2.9   877.3    0.00 
 210   19:00   0.01   82.5    34    2.4   210    15.7   877.6    0.00 
 210   19:10   0.00   84.0    21    5.4   246    12.5   877.8    0.00 
 210   19:20   0.00   87.1    18    7.7   266    18.3   877.9    0.00 
 210   19:30   0.00   88.0    18    7.7   272    12.8   877.9    0.00 
 210   19:40   0.00   87.4    18    7.0   279    12.6   878.1    0.00 
 210   19:50   0.00   87.4    18    9.5   281    14.0   878.2    0.00 
 210   20:00   0.00   87.0    20    8.9   285    14.3   878.3    0.00 
 210   20:10   0.00   87.0    20    6.7   281    13.3   878.3    0.00 
 210   20:20   0.00   86.1    20    5.3   279     9.6   878.3    0.00 
 210   20:30   0.00   85.6    20    4.5   272     8.3   878.3    0.00 
 210   20:40   0.00   85.5    21    4.8   281     6.6   878.4    0.00 
 210   20:50   0.00   84.4    24    4.2   299     6.5   878.4    0.00 
 210   21:00   0.00   82.7    26    3.7   304     4.5   878.4    0.00 
 210   21:10   0.00   83.3    24    2.4   267     3.5   878.5    0.00 
 210   21:20   0.00   83.4    23    1.5   250     2.9   878.5    0.00 
 210   21:30   0.00   83.3    23    0.3   252     1.5   878.5    0.00 
 210   21:40   0.00   83.0    26    0.7   342     2.8   878.4    0.00 
 210   21:50   0.00   80.4    30    2.4   272     3.9   878.5    0.00 
 210   22:00   0.00   81.5    24    2.0   251     3.4   878.4    0.00 
 210   22:10   0.00   81.4    28    1.1   178     1.8   878.4    0.00 
 210   22:20   0.00   77.9    35    2.8   174     4.6   878.5    0.00 
 210   22:30   0.00   75.1    36    3.6   194     6.1   878.5    0.00 
 210   22:40   0.00   74.3    35    1.0   170     3.3   878.5    0.00 
 210   22:50   0.00   74.7    34    3.6   168     4.5   878.6    0.00 
 210   23:00   0.00   74.7    32    4.7   219     6.6   878.6    0.00 
 210   23:10   0.00   77.5    25    4.7   241     7.9   878.7    0.00 
 210   23:20   0.00   81.2    21    4.7   240     7.7   878.7    0.00 
 210   23:30   0.00   80.6    25    2.4   305     4.4   878.9    0.00 
 210   23:40   0.00   74.9    36    1.9     2     3.4   878.9    0.00 
 210   23:50   0.00   71.5    43    1.0   252     2.2   878.8    0.00 
 211    0:00   0.00   70.0    47    2.5   257     3.3   878.7    0.00 
 211    0:10   0.00   70.9    41    3.2   244     4.4   878.6    0.00 
 211    0:20   0.00   73.6    34    2.8   236     4.4   878.6    0.00 
 211    0:30   0.00   72.9    36    0.5   168     1.4   878.7    0.00 
 211    0:40   0.00   72.1    38    2.2   199     3.2   878.7    0.00 
 211    0:50   0.00   72.0    37    1.7   234     2.5   878.6    0.00 
 211    1:00   0.00   73.0    34    2.1   246     4.1   878.6    0.00 
 211    1:10   0.00   74.0    33    2.4   266     3.6   878.7    0.00 
 211    1:20   0.00   73.3    36    3.8   248     5.9   878.6    0.00 
 211    1:30   0.00   70.7    41    5.2   218     6.6   878.5    0.00 
 211    1:40   0.00   70.0    46    2.8   317     5.2   878.5    0.00 
 211    1:50   0.00   69.0    46    2.9   283     3.7   878.5    0.00 
 211    2:00   0.00   70.1    43    2.5   279     3.3   878.4    0.00 
 211    2:10   0.00   70.4    41    2.7   278     3.3   878.3    0.00 
 211    2:20   0.00   71.9    37    2.4   264     3.9   878.3    0.00 
 211    2:30   0.00   71.4    38    2.0   256     2.9   878.3    0.00 
 211    2:40   0.00   69.9    45    0.5   302     2.3   878.3    0.00 
 211    2:50   0.00   68.2    46    0.5   316     2.2   878.3    0.00 
 211    3:00   0.00   67.0    47    0.4   157     2.3   878.2    0.00 
 211    3:10   0.00   67.9    44    1.2   264     2.6   878.1    0.00 
 211    3:20   0.00   69.2    50    3.5   308     4.3   878.0    0.00 
 211    3:30   0.00   68.7    49    3.6   301     4.3   878.0    0.00 
 211    3:40   0.00   67.9    52    3.4   298     4.9   877.9    0.00 

Return to south Mason Valley graphs page.


Western Regional Climate Center,wrcc@dri.edu